sensor_id;sensor_type;location;lat;lon;timestamp;P1;durP1;ratioP1;P2;durP2;ratioP2
19727;SDS011;10015;52.530;13.390;2022-09-13T00:00:56;4.07;;;2.87;;
19727;SDS011;10015;52.530;13.390;2022-09-13T00:03:22;3.30;;;2.90;;
19727;SDS011;10015;52.530;13.390;2022-09-13T00:05:48;4.20;;;2.83;;
19727;SDS011;10015;52.530;13.390;2022-09-13T00:08:14;3.93;;;2.73;;
19727;SDS011;10015;52.530;13.390;2022-09-13T00:10:41;6.00;;;2.80;;
19727;SDS011;10015;52.530;13.390;2022-09-13T00:13:08;3.57;;;2.60;;
19727;SDS011;10015;52.530;13.390;2022-09-13T00:15:36;4.60;;;2.80;;
19727;SDS011;10015;52.530;13.390;2022-09-13T00:18:16;3.00;;;2.70;;
19727;SDS011;10015;52.530;13.390;2022-09-13T00:20:43;3.30;;;2.67;;
19727;SDS011;10015;52.530;13.390;2022-09-13T00:23:09;2.93;;;2.53;;
19727;SDS011;10015;52.530;13.390;2022-09-13T00:25:35;3.47;;;2.90;;
19727;SDS011;10015;52.530;13.390;2022-09-13T00:28:01;3.13;;;2.70;;
19727;SDS011;10015;52.530;13.390;2022-09-13T00:30:28;3.20;;;2.70;;
19727;SDS011;10015;52.530;13.390;2022-09-13T00:32:54;4.20;;;2.97;;
19727;SDS011;10015;52.530;13.390;2022-09-13T00:35:20;3.63;;;2.77;;
19727;SDS011;10015;52.530;13.390;2022-09-13T00:37:46;4.87;;;2.80;;
19727;SDS011;10015;52.530;13.390;2022-09-13T00:40:12;3.93;;;3.17;;
19727;SDS011;10015;52.530;13.390;2022-09-13T00:42:38;3.33;;;2.83;;
19727;SDS011;10015;52.530;13.390;2022-09-13T00:47:56;4.07;;;2.97;;
19727;SDS011;10015;52.530;13.390;2022-09-13T00:50:33;3.53;;;2.90;;
19727;SDS011;10015;52.530;13.390;2022-09-13T00:53:11;3.20;;;2.80;;
19727;SDS011;10015;52.530;13.390;2022-09-13T00:58:09;3.87;;;2.90;;
19727;SDS011;10015;52.530;13.390;2022-09-13T01:00:38;3.20;;;2.90;;
19727;SDS011;10015;52.530;13.390;2022-09-13T01:03:06;2.67;;;2.47;;
19727;SDS011;10015;52.530;13.390;2022-09-13T01:05:41;3.53;;;2.90;;
19727;SDS011;10015;52.530;13.390;2022-09-13T01:08:10;4.03;;;2.80;;
19727;SDS011;10015;52.530;13.390;2022-09-13T01:10:46;3.63;;;3.03;;
19727;SDS011;10015;52.530;13.390;2022-09-13T01:13:17;3.00;;;2.70;;
19727;SDS011;10015;52.530;13.390;2022-09-13T01:15:45;3.20;;;2.90;;
19727;SDS011;10015;52.530;13.390;2022-09-13T01:18:12;2.87;;;2.53;;
19727;SDS011;10015;52.530;13.390;2022-09-13T01:34:31;3.63;;;2.77;;
19727;SDS011;10015;52.530;13.390;2022-09-13T01:39:59;2.57;;;2.37;;
19727;SDS011;10015;52.530;13.390;2022-09-13T01:42:35;5.00;;;2.67;;
19727;SDS011;10015;52.530;13.390;2022-09-13T01:47:47;4.30;;;3.00;;
19727;SDS011;10015;52.530;13.390;2022-09-13T01:50:38;4.07;;;2.80;;
19727;SDS011;10015;52.530;13.390;2022-09-13T01:53:09;2.97;;;2.67;;
19727;SDS011;10015;52.530;13.390;2022-09-13T01:55:57;3.00;;;2.70;;
19727;SDS011;10015;52.530;13.390;2022-09-13T01:58:42;4.00;;;3.17;;
19727;SDS011;10015;52.530;13.390;2022-09-13T02:01:15;2.97;;;2.60;;
19727;SDS011;10015;52.530;13.390;2022-09-13T02:03:52;3.47;;;3.00;;
19727;SDS011;10015;52.530;13.390;2022-09-13T02:06:25;3.00;;;2.60;;
19727;SDS011;10015;52.530;13.390;2022-09-13T02:08:57;3.23;;;2.63;;
19727;SDS011;10015;52.530;13.390;2022-09-13T02:11:27;3.73;;;2.80;;
19727;SDS011;10015;52.530;13.390;2022-09-13T02:14:07;3.00;;;2.70;;
19727;SDS011;10015;52.530;13.390;2022-09-13T02:19:11;3.43;;;2.80;;
19727;SDS011;10015;52.530;13.390;2022-09-13T02:21:45;3.80;;;2.70;;
19727;SDS011;10015;52.530;13.390;2022-09-13T02:24:28;4.03;;;3.00;;
19727;SDS011;10015;52.530;13.390;2022-09-13T02:27:07;3.73;;;2.70;;
19727;SDS011;10015;52.530;13.390;2022-09-13T02:29:38;6.77;;;3.30;;
19727;SDS011;10015;52.530;13.390;2022-09-13T02:32:26;5.53;;;2.87;;
19727;SDS011;10015;52.530;13.390;2022-09-13T02:35:04;4.13;;;3.20;;
19727;SDS011;10015;52.530;13.390;2022-09-13T02:37:39;3.30;;;3.00;;
19727;SDS011;10015;52.530;13.390;2022-09-13T02:40:13;4.13;;;2.87;;
19727;SDS011;10015;52.530;13.390;2022-09-13T02:42:44;3.50;;;3.20;;
19727;SDS011;10015;52.530;13.390;2022-09-13T02:45:26;4.13;;;3.13;;
19727;SDS011;10015;52.530;13.390;2022-09-13T02:47:58;5.33;;;2.83;;
19727;SDS011;10015;52.530;13.390;2022-09-13T02:50:43;4.97;;;3.10;;
19727;SDS011;10015;52.530;13.390;2022-09-13T02:58:55;4.87;;;3.47;;
19727;SDS011;10015;52.530;13.390;2022-09-13T03:01:22;3.87;;;3.50;;
19727;SDS011;10015;52.530;13.390;2022-09-13T03:03:50;4.63;;;3.20;;
19727;SDS011;10015;52.530;13.390;2022-09-13T03:06:22;5.00;;;3.10;;
19727;SDS011;10015;52.530;13.390;2022-09-13T03:08:52;4.60;;;3.50;;
19727;SDS011;10015;52.530;13.390;2022-09-13T03:19:39;5.10;;;3.50;;
19727;SDS011;10015;52.530;13.390;2022-09-13T03:25:39;4.13;;;3.20;;
19727;SDS011;10015;52.530;13.390;2022-09-13T03:31:07;3.93;;;3.20;;
19727;SDS011;10015;52.530;13.390;2022-09-13T03:39:21;4.40;;;3.37;;
19727;SDS011;10015;52.530;13.390;2022-09-13T03:41:53;4.63;;;3.80;;
19727;SDS011;10015;52.530;13.390;2022-09-13T03:44:23;4.23;;;3.60;;
19727;SDS011;10015;52.530;13.390;2022-09-13T03:46:52;6.13;;;3.90;;
19727;SDS011;10015;52.530;13.390;2022-09-13T03:49:22;5.23;;;3.27;;
19727;SDS011;10015;52.530;13.390;2022-09-13T03:51:51;4.60;;;3.43;;
19727;SDS011;10015;52.530;13.390;2022-09-13T03:54:20;5.03;;;3.40;;
19727;SDS011;10015;52.530;13.390;2022-09-13T03:59:52;3.80;;;3.23;;
19727;SDS011;10015;52.530;13.390;2022-09-13T04:02:20;4.53;;;3.50;;
19727;SDS011;10015;52.530;13.390;2022-09-13T04:04:47;4.63;;;3.83;;
19727;SDS011;10015;52.530;13.390;2022-09-13T04:07:15;4.67;;;3.70;;
19727;SDS011;10015;52.530;13.390;2022-09-13T04:09:45;5.70;;;4.10;;
19727;SDS011;10015;52.530;13.390;2022-09-13T04:12:12;4.60;;;3.60;;
19727;SDS011;10015;52.530;13.390;2022-09-13T04:14:39;6.17;;;3.80;;
19727;SDS011;10015;52.530;13.390;2022-09-13T04:17:07;4.90;;;3.70;;
19727;SDS011;10015;52.530;13.390;2022-09-13T04:19:33;4.67;;;3.80;;
19727;SDS011;10015;52.530;13.390;2022-09-13T04:21:59;5.83;;;3.80;;
19727;SDS011;10015;52.530;13.390;2022-09-13T04:24:28;4.27;;;3.87;;
19727;SDS011;10015;52.530;13.390;2022-09-13T04:26:55;5.57;;;4.20;;
19727;SDS011;10015;52.530;13.390;2022-09-13T04:29:25;6.10;;;4.23;;
19727;SDS011;10015;52.530;13.390;2022-09-13T04:31:56;4.50;;;4.00;;
19727;SDS011;10015;52.530;13.390;2022-09-13T04:34:25;6.93;;;4.40;;
19727;SDS011;10015;52.530;13.390;2022-09-13T04:36:56;4.40;;;4.00;;
19727;SDS011;10015;52.530;13.390;2022-09-13T04:39:21;7.77;;;4.33;;
19727;SDS011;10015;52.530;13.390;2022-09-13T04:41:50;7.43;;;4.57;;
19727;SDS011;10015;52.530;13.390;2022-09-13T04:44:19;7.53;;;4.37;;
19727;SDS011;10015;52.530;13.390;2022-09-13T04:46:46;7.37;;;4.73;;
19727;SDS011;10015;52.530;13.390;2022-09-13T04:49:14;5.63;;;4.60;;
19727;SDS011;10015;52.530;13.390;2022-09-13T04:51:42;5.63;;;4.40;;
19727;SDS011;10015;52.530;13.390;2022-09-13T04:54:09;5.60;;;4.33;;
19727;SDS011;10015;52.530;13.390;2022-09-13T04:56:35;7.13;;;4.63;;
19727;SDS011;10015;52.530;13.390;2022-09-13T04:59:07;9.03;;;4.90;;
19727;SDS011;10015;52.530;13.390;2022-09-13T05:01:34;6.40;;;4.43;;
19727;SDS011;10015;52.530;13.390;2022-09-13T05:04:01;7.40;;;5.50;;
19727;SDS011;10015;52.530;13.390;2022-09-13T05:06:28;7.27;;;4.97;;
19727;SDS011;10015;52.530;13.390;2022-09-13T05:08:55;8.47;;;4.67;;
19727;SDS011;10015;52.530;13.390;2022-09-13T05:11:21;8.90;;;4.90;;
19727;SDS011;10015;52.530;13.390;2022-09-13T05:13:49;5.93;;;4.37;;
19727;SDS011;10015;52.530;13.390;2022-09-13T05:16:23;7.47;;;4.97;;
19727;SDS011;10015;52.530;13.390;2022-09-13T05:18:50;6.90;;;4.97;;
19727;SDS011;10015;52.530;13.390;2022-09-13T05:21:16;7.93;;;5.40;;
19727;SDS011;10015;52.530;13.390;2022-09-13T05:23:43;4.87;;;4.23;;
19727;SDS011;10015;52.530;13.390;2022-09-13T05:26:09;6.93;;;5.37;;
19727;SDS011;10015;52.530;13.390;2022-09-13T05:28:36;9.07;;;4.87;;
19727;SDS011;10015;52.530;13.390;2022-09-13T05:31:03;6.57;;;5.03;;
19727;SDS011;10015;52.530;13.390;2022-09-13T05:33:32;6.90;;;5.40;;
19727;SDS011;10015;52.530;13.390;2022-09-13T05:36:01;7.57;;;5.03;;
19727;SDS011;10015;52.530;13.390;2022-09-13T05:38:28;9.10;;;5.10;;
19727;SDS011;10015;52.530;13.390;2022-09-13T05:40:55;6.93;;;5.20;;
19727;SDS011;10015;52.530;13.390;2022-09-13T05:45:50;9.77;;;5.90;;
19727;SDS011;10015;52.530;13.390;2022-09-13T05:48:24;6.33;;;5.17;;
19727;SDS011;10015;52.530;13.390;2022-09-13T05:50:50;6.33;;;4.77;;
19727;SDS011;10015;52.530;13.390;2022-09-13T05:53:16;6.37;;;5.00;;
19727;SDS011;10015;52.530;13.390;2022-09-13T05:55:41;7.97;;;4.83;;
19727;SDS011;10015;52.530;13.390;2022-09-13T05:58:07;5.73;;;4.33;;
19727;SDS011;10015;52.530;13.390;2022-09-13T06:00:33;8.23;;;5.30;;
19727;SDS011;10015;52.530;13.390;2022-09-13T06:02:59;9.17;;;5.37;;
19727;SDS011;10015;52.530;13.390;2022-09-13T06:05:25;6.67;;;4.43;;
19727;SDS011;10015;52.530;13.390;2022-09-13T06:07:51;6.57;;;4.77;;
19727;SDS011;10015;52.530;13.390;2022-09-13T06:10:17;7.83;;;4.87;;
19727;SDS011;10015;52.530;13.390;2022-09-13T06:12:44;6.70;;;4.30;;
19727;SDS011;10015;52.530;13.390;2022-09-13T06:15:10;7.03;;;4.60;;
19727;SDS011;10015;52.530;13.390;2022-09-13T06:17:36;7.87;;;4.73;;
19727;SDS011;10015;52.530;13.390;2022-09-13T06:20:02;7.67;;;4.47;;
19727;SDS011;10015;52.530;13.390;2022-09-13T06:22:29;6.03;;;3.90;;
19727;SDS011;10015;52.530;13.390;2022-09-13T06:25:00;7.40;;;4.87;;
19727;SDS011;10015;52.530;13.390;2022-09-13T06:27:27;9.90;;;5.80;;
19727;SDS011;10015;52.530;13.390;2022-09-13T06:29:54;7.73;;;5.30;;
19727;SDS011;10015;52.530;13.390;2022-09-13T06:32:20;9.40;;;4.50;;
19727;SDS011;10015;52.530;13.390;2022-09-13T06:34:45;8.43;;;5.37;;
19727;SDS011;10015;52.530;13.390;2022-09-13T06:37:12;11.43;;;5.53;;
19727;SDS011;10015;52.530;13.390;2022-09-13T06:39:38;9.23;;;5.80;;
19727;SDS011;10015;52.530;13.390;2022-09-13T06:42:04;8.70;;;5.47;;
19727;SDS011;10015;52.530;13.390;2022-09-13T06:44:38;8.27;;;6.47;;
19727;SDS011;10015;52.530;13.390;2022-09-13T06:47:04;7.57;;;5.70;;
19727;SDS011;10015;52.530;13.390;2022-09-13T06:49:30;9.80;;;5.57;;
19727;SDS011;10015;52.530;13.390;2022-09-13T06:51:56;7.40;;;5.90;;
19727;SDS011;10015;52.530;13.390;2022-09-13T06:54:22;9.73;;;5.70;;
19727;SDS011;10015;52.530;13.390;2022-09-13T06:56:48;8.47;;;5.70;;
19727;SDS011;10015;52.530;13.390;2022-09-13T06:59:14;9.13;;;6.33;;
19727;SDS011;10015;52.530;13.390;2022-09-13T07:01:40;11.13;;;6.37;;
19727;SDS011;10015;52.530;13.390;2022-09-13T07:04:12;9.10;;;6.07;;
19727;SDS011;10015;52.530;13.390;2022-09-13T07:06:47;8.23;;;5.93;;
19727;SDS011;10015;52.530;13.390;2022-09-13T07:09:15;9.37;;;6.33;;
19727;SDS011;10015;52.530;13.390;2022-09-13T07:11:43;9.20;;;6.50;;
19727;SDS011;10015;52.530;13.390;2022-09-13T07:14:15;8.57;;;6.40;;
19727;SDS011;10015;52.530;13.390;2022-09-13T07:16:42;8.57;;;6.50;;
19727;SDS011;10015;52.530;13.390;2022-09-13T07:19:14;11.97;;;6.87;;
19727;SDS011;10015;52.530;13.390;2022-09-13T07:21:42;11.97;;;6.60;;
19727;SDS011;10015;52.530;13.390;2022-09-13T07:24:09;11.77;;;6.67;;
19727;SDS011;10015;52.530;13.390;2022-09-13T07:26:35;9.63;;;6.60;;
19727;SDS011;10015;52.530;13.390;2022-09-13T07:29:07;14.70;;;6.63;;
19727;SDS011;10015;52.530;13.390;2022-09-13T07:31:40;10.60;;;7.00;;
19727;SDS011;10015;52.530;13.390;2022-09-13T07:34:15;14.23;;;7.63;;
19727;SDS011;10015;52.530;13.390;2022-09-13T07:36:43;13.50;;;7.00;;
19727;SDS011;10015;52.530;13.390;2022-09-13T07:39:11;13.67;;;8.23;;
19727;SDS011;10015;52.530;13.390;2022-09-13T07:41:38;11.63;;;7.17;;
19727;SDS011;10015;52.530;13.390;2022-09-13T07:44:05;12.50;;;6.83;;
19727;SDS011;10015;52.530;13.390;2022-09-13T07:46:33;12.47;;;7.70;;
19727;SDS011;10015;52.530;13.390;2022-09-13T07:49:04;13.30;;;7.93;;
19727;SDS011;10015;52.530;13.390;2022-09-13T07:51:31;12.33;;;7.40;;
19727;SDS011;10015;52.530;13.390;2022-09-13T07:54:01;12.10;;;7.27;;
19727;SDS011;10015;52.530;13.390;2022-09-13T07:56:30;9.10;;;6.60;;
19727;SDS011;10015;52.530;13.390;2022-09-13T07:58:59;10.43;;;7.17;;
19727;SDS011;10015;52.530;13.390;2022-09-13T08:01:28;12.70;;;7.40;;
19727;SDS011;10015;52.530;13.390;2022-09-13T08:04:06;13.50;;;8.07;;
19727;SDS011;10015;52.530;13.390;2022-09-13T08:06:37;9.27;;;6.70;;
19727;SDS011;10015;52.530;13.390;2022-09-13T08:09:05;11.23;;;6.53;;
19727;SDS011;10015;52.530;13.390;2022-09-13T08:11:36;10.43;;;6.80;;
19727;SDS011;10015;52.530;13.390;2022-09-13T08:14:12;9.97;;;7.00;;
19727;SDS011;10015;52.530;13.390;2022-09-13T08:16:40;10.83;;;7.10;;
19727;SDS011;10015;52.530;13.390;2022-09-13T08:19:06;10.67;;;7.50;;
19727;SDS011;10015;52.530;13.390;2022-09-13T08:21:35;9.37;;;6.97;;
19727;SDS011;10015;52.530;13.390;2022-09-13T08:24:06;10.27;;;6.93;;
19727;SDS011;10015;52.530;13.390;2022-09-13T08:26:46;8.27;;;6.40;;
19727;SDS011;10015;52.530;13.390;2022-09-13T08:29:14;11.00;;;7.33;;
19727;SDS011;10015;52.530;13.390;2022-09-13T08:31:40;11.13;;;7.30;;
19727;SDS011;10015;52.530;13.390;2022-09-13T08:34:09;9.60;;;7.17;;
19727;SDS011;10015;52.530;13.390;2022-09-13T08:36:36;10.73;;;6.40;;
19727;SDS011;10015;52.530;13.390;2022-09-13T08:39:03;10.87;;;6.93;;
19727;SDS011;10015;52.530;13.390;2022-09-13T08:49:49;11.40;;;6.77;;
19727;SDS011;10015;52.530;13.390;2022-09-13T08:52:29;9.57;;;6.67;;
19727;SDS011;10015;52.530;13.390;2022-09-13T08:55:28;11.87;;;6.50;;
19727;SDS011;10015;52.530;13.390;2022-09-13T09:04:22;9.07;;;6.53;;
19727;SDS011;10015;52.530;13.390;2022-09-13T09:07:08;9.27;;;6.60;;
19727;SDS011;10015;52.530;13.390;2022-09-13T09:12:36;10.40;;;6.23;;
19727;SDS011;10015;52.530;13.390;2022-09-13T09:15:18;12.57;;;6.70;;
19727;SDS011;10015;52.530;13.390;2022-09-13T09:20:33;10.27;;;6.63;;
19727;SDS011;10015;52.530;13.390;2022-09-13T09:25:55;10.33;;;6.23;;
19727;SDS011;10015;52.530;13.390;2022-09-13T09:28:44;8.30;;;6.10;;
19727;SDS011;10015;52.530;13.390;2022-09-13T09:31:40;13.17;;;6.50;;
19727;SDS011;10015;52.530;13.390;2022-09-13T09:37:28;9.40;;;5.97;;
19727;SDS011;10015;52.530;13.390;2022-09-13T09:39:59;8.27;;;5.87;;
19727;SDS011;10015;52.530;13.390;2022-09-13T09:42:32;8.60;;;5.37;;
19727;SDS011;10015;52.530;13.390;2022-09-13T09:47:45;15.88;;;9.60;;
19727;SDS011;10015;52.530;13.390;2022-09-13T09:50:15;15.27;;;9.18;;
19727;SDS011;10015;52.530;13.390;2022-09-13T09:53:47;9.35;;;6.05;;
19727;SDS011;10015;52.530;13.390;2022-09-13T09:55:58;17.80;;;9.40;;
19727;SDS011;10015;52.530;13.390;2022-09-13T10:01:01;10.35;;;5.68;;
19727;SDS011;10015;52.530;13.390;2022-09-13T10:03:28;9.85;;;5.18;;
19727;SDS011;10015;52.530;13.390;2022-09-13T10:06:05;8.60;;;5.60;;
19727;SDS011;10015;52.530;13.390;2022-09-13T10:08:38;5.72;;;4.88;;
19727;SDS011;10015;52.530;13.390;2022-09-13T10:11:06;8.50;;;4.93;;
19727;SDS011;10015;52.530;13.390;2022-09-13T10:13:33;6.38;;;4.50;;
19727;SDS011;10015;52.530;13.390;2022-09-13T10:16:03;10.35;;;5.57;;
19727;SDS011;10015;52.530;13.390;2022-09-13T10:18:32;7.75;;;5.22;;
19727;SDS011;10015;52.530;13.390;2022-09-13T10:23:45;7.75;;;4.93;;
19727;SDS011;10015;52.530;13.390;2022-09-13T10:26:19;7.07;;;5.00;;
19727;SDS011;10015;52.530;13.390;2022-09-13T10:28:53;8.13;;;4.78;;
19727;SDS011;10015;52.530;13.390;2022-09-13T10:31:35;9.07;;;4.45;;
19727;SDS011;10015;52.530;13.390;2022-09-13T10:34:04;9.48;;;5.00;;
19727;SDS011;10015;52.530;13.390;2022-09-13T10:36:36;8.07;;;5.22;;
19727;SDS011;10015;52.530;13.390;2022-09-13T10:41:36;24.48;;;14.55;;
19727;SDS011;10015;52.530;13.390;2022-09-13T10:44:50;32.42;;;17.98;;
19727;SDS011;10015;52.530;13.390;2022-09-13T10:47:06;19.33;;;11.02;;
19727;SDS011;10015;52.530;13.390;2022-09-13T10:49:39;9.20;;;6.35;;
19727;SDS011;10015;52.530;13.390;2022-09-13T10:57:48;11.75;;;5.80;;
19727;SDS011;10015;52.530;13.390;2022-09-13T11:00:18;9.90;;;6.70;;
19727;SDS011;10015;52.530;13.390;2022-09-13T11:19:24;12.33;;;5.83;;
19727;SDS011;10015;52.530;13.390;2022-09-13T11:25:30;12.57;;;7.18;;
19727;SDS011;10015;52.530;13.390;2022-09-13T11:28:12;10.23;;;6.32;;
19727;SDS011;10015;52.530;13.390;2022-09-13T11:31:02;11.43;;;6.43;;
19727;SDS011;10015;52.530;13.390;2022-09-13T11:33:39;10.73;;;6.10;;
19727;SDS011;10015;52.530;13.390;2022-09-13T11:42:16;13.90;;;8.27;;
19727;SDS011;10015;52.530;13.390;2022-09-13T11:47:59;12.47;;;6.63;;
19727;SDS011;10015;52.530;13.390;2022-09-13T11:56:01;12.57;;;6.80;;
19727;SDS011;10015;52.530;13.390;2022-09-13T11:58:34;11.60;;;6.30;;
19727;SDS011;10015;52.530;13.390;2022-09-13T12:01:15;10.47;;;6.43;;
19727;SDS011;10015;52.530;13.390;2022-09-13T12:06:42;12.07;;;6.33;;
19727;SDS011;10015;52.530;13.390;2022-09-13T12:09:17;9.30;;;6.43;;
19727;SDS011;10015;52.530;13.390;2022-09-13T12:11:47;15.53;;;8.67;;
19727;SDS011;10015;52.530;13.390;2022-09-13T12:14:20;14.02;;;8.88;;
19727;SDS011;10015;52.530;13.390;2022-09-13T12:16:48;12.97;;;7.20;;
19727;SDS011;10015;52.530;13.390;2022-09-13T12:19:26;11.27;;;6.90;;
19727;SDS011;10015;52.530;13.390;2022-09-13T12:22:01;14.53;;;7.53;;
19727;SDS011;10015;52.530;13.390;2022-09-13T12:29:43;13.77;;;7.73;;
19727;SDS011;10015;52.530;13.390;2022-09-13T12:32:18;12.07;;;7.83;;
19727;SDS011;10015;52.530;13.390;2022-09-13T12:34:48;13.83;;;8.70;;
19727;SDS011;10015;52.530;13.390;2022-09-13T12:56:39;38.67;;;27.30;;
19727;SDS011;10015;52.530;13.390;2022-09-13T12:59:21;13.48;;;8.07;;
19727;SDS011;10015;52.530;13.390;2022-09-13T13:04:59;10.97;;;7.00;;
19727;SDS011;10015;52.530;13.390;2022-09-13T13:07:48;15.60;;;9.57;;
19727;SDS011;10015;52.530;13.390;2022-09-13T13:10:37;17.07;;;10.97;;
19727;SDS011;10015;52.530;13.390;2022-09-13T13:18:20;24.23;;;12.57;;
19727;SDS011;10015;52.530;13.390;2022-09-13T13:39:12;13.70;;;8.50;;
19727;SDS011;10015;52.530;13.390;2022-09-13T13:49:44;13.13;;;6.47;;
19727;SDS011;10015;52.530;13.390;2022-09-13T13:55:01;8.97;;;6.23;;
19727;SDS011;10015;52.530;13.390;2022-09-13T13:57:55;8.40;;;5.10;;
19727;SDS011;10015;52.530;13.390;2022-09-13T14:00:26;7.20;;;4.87;;
19727;SDS011;10015;52.530;13.390;2022-09-13T14:05:42;6.83;;;4.40;;
19727;SDS011;10015;52.530;13.390;2022-09-13T14:08:37;10.37;;;6.03;;
19727;SDS011;10015;52.530;13.390;2022-09-13T14:19:39;6.77;;;4.30;;
19727;SDS011;10015;52.530;13.390;2022-09-13T14:24:45;4.27;;;3.60;;
19727;SDS011;10015;52.530;13.390;2022-09-13T14:27:17;6.68;;;3.85;;
19727;SDS011;10015;52.530;13.390;2022-09-13T14:29:49;4.72;;;3.30;;
19727;SDS011;10015;52.530;13.390;2022-09-13T14:32:22;5.87;;;3.80;;
19727;SDS011;10015;52.530;13.390;2022-09-13T14:34:52;4.10;;;3.13;;
19727;SDS011;10015;52.530;13.390;2022-09-13T14:37:19;5.63;;;3.50;;
19727;SDS011;10015;52.530;13.390;2022-09-13T14:40:30;4.00;;;3.17;;
19727;SDS011;10015;52.530;13.390;2022-09-13T14:42:46;7.73;;;4.90;;
19727;SDS011;10015;52.530;13.390;2022-09-13T14:45:15;10.07;;;7.00;;
19727;SDS011;10015;52.530;13.390;2022-09-13T14:48:06;8.37;;;5.07;;
19727;SDS011;10015;52.530;13.390;2022-09-13T14:50:38;3.75;;;3.13;;
19727;SDS011;10015;52.530;13.390;2022-09-13T14:53:13;5.93;;;3.47;;
19727;SDS011;10015;52.530;13.390;2022-09-13T14:55:44;6.07;;;3.80;;
19727;SDS011;10015;52.530;13.390;2022-09-13T14:58:22;7.07;;;3.60;;
19727;SDS011;10015;52.530;13.390;2022-09-13T15:01:11;4.90;;;2.97;;
19727;SDS011;10015;52.530;13.390;2022-09-13T15:03:42;5.20;;;3.60;;
19727;SDS011;10015;52.530;13.390;2022-09-13T15:06:18;3.70;;;3.20;;
19727;SDS011;10015;52.530;13.390;2022-09-13T15:08:50;5.90;;;3.63;;
19727;SDS011;10015;52.530;13.390;2022-09-13T15:11:31;4.63;;;3.73;;
19727;SDS011;10015;52.530;13.390;2022-09-13T15:13:59;5.23;;;3.60;;
19727;SDS011;10015;52.530;13.390;2022-09-13T15:16:50;7.47;;;4.38;;
19727;SDS011;10015;52.530;13.390;2022-09-13T15:19:29;7.20;;;5.17;;
19727;SDS011;10015;52.530;13.390;2022-09-13T15:22:03;7.13;;;4.63;;
19727;SDS011;10015;52.530;13.390;2022-09-13T15:24:36;8.03;;;5.07;;
19727;SDS011;10015;52.530;13.390;2022-09-13T15:27:13;8.27;;;4.60;;
19727;SDS011;10015;52.530;13.390;2022-09-13T15:29:52;7.13;;;4.50;;
19727;SDS011;10015;52.530;13.390;2022-09-13T15:32:29;7.72;;;4.70;;
19727;SDS011;10015;52.530;13.390;2022-09-13T15:35:22;8.85;;;5.18;;
19727;SDS011;10015;52.530;13.390;2022-09-13T15:38:01;7.55;;;5.07;;
19727;SDS011;10015;52.530;13.390;2022-09-13T15:40:57;8.00;;;4.78;;
19727;SDS011;10015;52.530;13.390;2022-09-13T15:43:36;7.32;;;4.93;;
19727;SDS011;10015;52.530;13.390;2022-09-13T15:46:02;7.72;;;4.70;;
19727;SDS011;10015;52.530;13.390;2022-09-13T15:48:30;6.95;;;5.07;;
19727;SDS011;10015;52.530;13.390;2022-09-13T15:51:11;8.55;;;4.90;;
19727;SDS011;10015;52.530;13.390;2022-09-13T15:53:39;7.25;;;5.15;;
19727;SDS011;10015;52.530;13.390;2022-09-13T15:56:07;7.68;;;5.55;;
19727;SDS011;10015;52.530;13.390;2022-09-13T15:58:36;7.80;;;5.95;;
19727;SDS011;10015;52.530;13.390;2022-09-13T16:01:03;10.05;;;5.75;;
19727;SDS011;10015;52.530;13.390;2022-09-13T16:03:29;7.18;;;5.25;;
19727;SDS011;10015;52.530;13.390;2022-09-13T16:05:56;9.23;;;5.40;;
19727;SDS011;10015;52.530;13.390;2022-09-13T16:08:22;7.73;;;5.20;;
19727;SDS011;10015;52.530;13.390;2022-09-13T16:10:52;8.38;;;4.65;;
19727;SDS011;10015;52.530;13.390;2022-09-13T16:13:18;6.45;;;4.38;;
19727;SDS011;10015;52.530;13.390;2022-09-13T16:15:44;8.75;;;5.30;;
19727;SDS011;10015;52.530;13.390;2022-09-13T16:18:10;10.18;;;5.60;;
19727;SDS011;10015;52.530;13.390;2022-09-13T16:20:37;6.90;;;4.90;;
19727;SDS011;10015;52.530;13.390;2022-09-13T16:23:03;7.20;;;5.07;;
19727;SDS011;10015;52.530;13.390;2022-09-13T16:25:29;6.50;;;4.03;;
19727;SDS011;10015;52.530;13.390;2022-09-13T16:27:55;6.03;;;4.13;;
19727;SDS011;10015;52.530;13.390;2022-09-13T16:30:22;8.20;;;4.73;;
19727;SDS011;10015;52.530;13.390;2022-09-13T16:32:48;7.13;;;4.45;;
19727;SDS011;10015;52.530;13.390;2022-09-13T16:35:14;5.33;;;4.10;;
19727;SDS011;10015;52.530;13.390;2022-09-13T16:37:43;8.07;;;3.83;;
19727;SDS011;10015;52.530;13.390;2022-09-13T16:40:10;6.47;;;4.53;;
19727;SDS011;10015;52.530;13.390;2022-09-13T16:42:36;5.17;;;4.00;;
19727;SDS011;10015;52.530;13.390;2022-09-13T16:45:03;5.43;;;3.70;;
19727;SDS011;10015;52.530;13.390;2022-09-13T16:47:34;5.70;;;3.90;;
19727;SDS011;10015;52.530;13.390;2022-09-13T16:50:04;6.27;;;4.10;;
19727;SDS011;10015;52.530;13.390;2022-09-13T16:52:34;6.17;;;3.90;;
19727;SDS011;10015;52.530;13.390;2022-09-13T16:55:03;5.23;;;4.13;;
19727;SDS011;10015;52.530;13.390;2022-09-13T16:57:30;5.50;;;4.00;;
19727;SDS011;10015;52.530;13.390;2022-09-13T16:59:56;6.73;;;4.23;;
19727;SDS011;10015;52.530;13.390;2022-09-13T17:02:23;7.20;;;4.10;;
19727;SDS011;10015;52.530;13.390;2022-09-13T17:04:50;5.15;;;4.00;;
19727;SDS011;10015;52.530;13.390;2022-09-13T17:07:18;6.87;;;4.27;;
19727;SDS011;10015;52.530;13.390;2022-09-13T17:09:45;6.30;;;4.67;;
19727;SDS011;10015;52.530;13.390;2022-09-13T17:12:12;5.83;;;4.30;;
19727;SDS011;10015;52.530;13.390;2022-09-13T17:14:39;7.10;;;4.87;;
19727;SDS011;10015;52.530;13.390;2022-09-13T17:17:12;7.30;;;4.77;;
19727;SDS011;10015;52.530;13.390;2022-09-13T17:19:42;8.20;;;4.60;;
19727;SDS011;10015;52.530;13.390;2022-09-13T17:22:12;5.43;;;4.30;;
19727;SDS011;10015;52.530;13.390;2022-09-13T17:24:38;6.67;;;4.33;;
19727;SDS011;10015;52.530;13.390;2022-09-13T17:27:10;8.83;;;4.93;;
19727;SDS011;10015;52.530;13.390;2022-09-13T17:29:35;7.90;;;4.20;;
19727;SDS011;10015;52.530;13.390;2022-09-13T17:32:02;5.00;;;3.60;;
19727;SDS011;10015;52.530;13.390;2022-09-13T17:34:30;6.17;;;4.20;;
19727;SDS011;10015;52.530;13.390;2022-09-13T17:36:59;5.57;;;4.00;;
19727;SDS011;10015;52.530;13.390;2022-09-13T17:39:27;5.80;;;4.13;;
19727;SDS011;10015;52.530;13.390;2022-09-13T17:41:53;7.33;;;4.60;;
19727;SDS011;10015;52.530;13.390;2022-09-13T17:44:19;9.00;;;5.63;;
19727;SDS011;10015;52.530;13.390;2022-09-13T17:46:45;7.37;;;4.90;;
19727;SDS011;10015;52.530;13.390;2022-09-13T17:49:11;7.07;;;4.30;;
19727;SDS011;10015;52.530;13.390;2022-09-13T17:51:37;6.80;;;3.73;;
19727;SDS011;10015;52.530;13.390;2022-09-13T17:54:04;6.27;;;3.93;;
19727;SDS011;10015;52.530;13.390;2022-09-13T17:56:34;5.33;;;3.30;;
19727;SDS011;10015;52.530;13.390;2022-09-13T18:01:34;4.20;;;3.23;;
19727;SDS011;10015;52.530;13.390;2022-09-13T18:04:01;6.00;;;3.50;;
19727;SDS011;10015;52.530;13.390;2022-09-13T18:06:27;4.43;;;2.90;;
19727;SDS011;10015;52.530;13.390;2022-09-13T18:08:53;3.33;;;2.67;;
19727;SDS011;10015;52.530;13.390;2022-09-13T18:11:19;5.07;;;2.80;;
19727;SDS011;10015;52.530;13.390;2022-09-13T18:13:46;3.77;;;3.10;;
19727;SDS011;10015;52.530;13.390;2022-09-13T18:16:14;7.17;;;3.23;;
19727;SDS011;10015;52.530;13.390;2022-09-13T18:18:45;4.70;;;2.80;;
19727;SDS011;10015;52.530;13.390;2022-09-13T18:21:12;5.03;;;2.67;;
19727;SDS011;10015;52.530;13.390;2022-09-13T18:23:39;4.23;;;3.00;;
19727;SDS011;10015;52.530;13.390;2022-09-13T18:26:12;3.70;;;2.60;;
19727;SDS011;10015;52.530;13.390;2022-09-13T18:28:40;4.43;;;2.73;;
19727;SDS011;10015;52.530;13.390;2022-09-13T18:31:28;3.10;;;2.40;;